KGHG

Marshfield Municipal - George Harlow Field Airport

Marshfield, Massachusetts, USA
METAR KGHG 182015Z AUTO VRB03KT 10SM SCT020 BKN031 OVC043 03/M04 A2999 RMK AO2
Observed Flight Rules
Dec-18 @ 20:15 UTC (18 minutes ago) Visual Flight Rules
Wind Visibility Clouds
Variable at 3 knots 10 miles
  • Scattered at 2,000' AGL
  • Broken at 3,100' AGL
  • Overcast at 4,300' AGL
Temperatures Readings
Current 3°C / 37°F
Dewpoint -4°C / 25°F
Humidity 60%
Altimeter 29.99" Hg
Pressure 1016 hPa
Elevation 4
METAR KGHG 182015Z AUTO VRB03KT 10SM SCT020 BKN031 OVC043 03/M04 A2999 RMK AO2
Observed Flight Rules
Dec-18 @ 20:15 UTC
(18 minutes ago)
VFR
Wind Visibility
Variable at 3 knots 10 miles
Clouds
  • Scattered at 2,000' AGL
  • Broken at 3,100' AGL
  • Overcast at 4,300' AGL
Temperature Dewpoint
3°C / 37°F -4°C / 25°F
Humidity Altimeter Pressure
60% 29.99" Hg 1016 hPa